Terminal Aerodrome Forecast
Issued by NWS

Home | Current Version | Previous Version | Text Only | Print | Product List | Glossary On
Versions: 1 2 3 4 5 6 7 8 9 10 11 12 13 14 15 16
000
FTUS46 KHNX 270520
TAFFAT
TAF
KFAT 270520Z 2706/2806 00000KT 5SM BR SKC
      TEMPO 2712/2716 2SM BR
     FM272000 VRB03KT 5SM HZ SCT200=

USA.gov is the U.S. government's official web portal to all federal, state and local government web resources and services.